Terminal Aerodrome Forecast
Issued by NWS Memphis, TN

Home | Current Version | Previous Version | Text Only | Print | Product List | Glossary On
Versions: 1 2 3 4 5 6 7 8 9 10 11 12 13 14 15 16 17 18 19 20 21 22 23 24 25 26
263
FTUS44 KMEG 170542
TAFMKL
TAF
KMKL 170542Z 1706/1806 00000KT P6SM SKC
     FM170800 00000KT 4SM BR SKC
     FM171200 VRB03KT P6SM SKC
     FM171700 32006KT P6SM SCT060
     FM180100 00000KT P6SM SKC=

USA.gov is the U.S. government's official web portal to all federal, state and local government web resources and services.